Time;durP1;ratioP1;P1;durP2;ratioP2;P2;SDS_P1;SDS_P2;PMS_P1;PMS_P2;Temp;Humidity;BMP_temperature;BMP_pressure;BME280_temperature;BME280_humidity;BME280_pressure;Samples;Min_cycle;Max_cycle;Signal;HPM_P1;HPM_P2
2022/11/26 00:00:12;;;;;;;0.10;0.00;;;;;;;4.25;100.00;102428.13;5229737;28;20072;-69
2022/11/26 00:02:44;;;;;;;0.17;0.00;;;;;;;4.23;100.00;102424.66;5231565;28;20112;-70
2022/11/26 00:05:16;;;;;;;0.28;0.00;;;;;;;4.24;100.00;102428.19;5228393;28;20042;-70
2022/11/26 00:07:54;;;;;;;0.05;0.00;;;;;;;4.24;100.00;102425.53;5231543;28;20022;-70
2022/11/26 00:10:33;;;;;;;0.00;0.00;;;;;;;4.24;100.00;102434.31;5228244;28;20520;-69
2022/11/26 00:13:15;;;;;;;0.35;0.03;;;;;;;4.22;100.00;102433.50;5229776;28;20075;-71
2022/11/26 00:15:47;;;;;;;0.00;0.00;;;;;;;4.22;100.00;102433.50;5236196;28;20691;-70
2022/11/26 00:18:22;;;;;;;0.13;0.00;;;;;;;4.22;100.00;102436.16;5231831;28;20026;-70
2022/11/26 00:20:58;;;;;;;0.45;0.10;;;;;;;4.22;100.00;102441.44;5227387;28;20041;-70
2022/11/26 00:23:29;;;;;;;0.20;0.00;;;;;;;4.20;100.00;102437.94;5230147;28;20029;-70
2022/11/26 00:26:02;;;;;;;0.00;0.00;;;;;;;4.21;100.00;102446.75;5228789;28;20029;-70
2022/11/26 00:28:36;;;;;;;0.60;0.03;;;;;;;4.19;100.00;102445.91;5226218;28;20028;-70
2022/11/26 00:31:13;;;;;;;;;;;;;;;4.17;100.00;102442.44;5230265;28;20068;-70
2022/11/26 00:33:45;;;;;;;0.15;0.00;;;;;;;4.15;100.00;102449.53;5224250;28;19921;-70
2022/11/26 00:36:18;;;;;;;0.00;0.00;;;;;;;4.13;100.00;102434.56;5229940;28;20532;-70
2022/11/26 00:38:57;;;;;;;0.00;0.00;;;;;;;4.13;100.00;102446.91;5228976;28;20021;-70
2022/11/26 00:41:34;;;;;;;0.00;0.00;;;;;;;4.09;100.00;102434.69;5227685;28;20061;-70
2022/11/26 00:44:20;;;;;;;0.00;0.00;;;;;;;4.07;100.00;102440.00;5227555;28;20488;-70
2022/11/26 00:46:52;;;;;;;0.00;0.00;;;;;;;4.04;100.00;102447.13;5231092;28;20025;-70
2022/11/26 00:49:23;;;;;;;0.00;0.00;;;;;;;4.02;100.00;102444.53;5228501;28;20360;-70
2022/11/26 00:51:55;;;;;;;0.00;0.00;;;;;;;4.01;100.00;102445.44;5229756;28;20546;-71
2022/11/26 00:54:26;;;;;;;0.10;0.00;;;;;;;4.00;100.00;102448.13;5229580;28;20427;-70
2022/11/26 00:56:57;;;;;;;0.08;0.00;;;;;;;3.99;100.00;102446.38;5226717;28;20035;-70
2022/11/26 00:59:29;;;;;;;0.00;0.00;;;;;;;3.97;100.00;102448.16;5231405;28;20140;-70
2022/11/26 01:02:00;;;;;;;0.00;0.00;;;;;;;3.93;100.00;102448.25;5228478;28;20099;-70
2022/11/26 01:04:32;;;;;;;0.00;0.00;;;;;;;3.92;100.00;102454.44;5231966;28;20064;-70
2022/11/26 01:07:03;;;;;;;0.00;0.00;;;;;;;3.91;100.00;102451.81;5231358;28;20032;-70
2022/11/26 01:09:35;;;;;;;0.00;0.00;;;;;;;3.90;100.00;102463.31;5236833;28;20053;-70
2022/11/26 01:12:12;;;;;;;0.00;0.00;;;;;;;3.87;100.00;102463.34;5226939;28;20021;-70
2022/11/26 01:14:44;;;;;;;0.10;0.00;;;;;;;3.83;100.00;102454.63;5225178;28;20021;-70
2022/11/26 01:17:15;;;;;;;0.00;0.00;;;;;;;3.82;100.00;102452.91;5228773;28;20032;-70
2022/11/26 01:19:46;;;;;;;0.10;0.00;;;;;;;3.82;100.00;102452.91;5228437;28;20026;-70
2022/11/26 01:22:21;;;;;;;0.10;0.00;;;;;;;3.81;100.00;102455.56;5228440;28;20033;-70
2022/11/26 01:24:52;;;;;;;0.00;0.00;;;;;;;3.80;100.00;102444.16;5230085;28;20120;-70
2022/11/26 01:27:23;;;;;;;0.00;0.00;;;;;;;3.78;100.00;102447.72;5230930;28;20063;-70
2022/11/26 01:29:54;;;;;;;0.32;0.00;;;;;;;3.76;100.00;102437.22;5227662;28;20400;-70
2022/11/26 01:32:26;;;;;;;0.00;0.00;;;;;;;3.76;100.00;102444.25;5229758;28;20833;-70
2022/11/26 01:34:57;;;;;;;0.00;0.00;;;;;;;3.74;100.00;102444.31;5226985;28;20462;-70
2022/11/26 01:37:28;;;;;;;0.73;0.10;;;;;;;3.73;100.00;102447.81;5226118;28;20703;-69
2022/11/26 01:39:59;;;;;;;0.00;0.00;;;;;;;3.73;100.00;102450.47;5228606;28;20033;-69
2022/11/26 01:42:41;;;;;;;0.20;0.00;;;;;;;3.71;100.00;102461.06;5229288;28;20032;-70
2022/11/26 01:45:18;;;;;;;0.35;0.00;;;;;;;3.70;100.00;102461.97;5226118;28;20036;-69
2022/11/26 01:47:50;;;;;;;0.13;0.00;;;;;;;3.68;100.00;102454.97;5230809;28;20124;-69
2022/11/26 01:50:27;;;;;;;0.00;0.00;;;;;;;3.66;100.00;102470.88;5227615;28;20430;-69
2022/11/26 01:53:12;;;;;;;0.10;0.00;;;;;;;3.63;100.00;102480.63;5225785;28;20071;-69
2022/11/26 01:55:48;;;;;;;0.22;0.00;;;;;;;3.61;100.00;102485.91;5230892;28;20061;-69
2022/11/26 01:58:26;;;;;;;0.20;0.00;;;;;;;3.60;100.00;102483.31;5228136;28;20434;-67
2022/11/26 02:00:58;;;;;;;0.00;0.00;;;;;;;3.60;100.00;102478.88;5219585;28;20430;-67
2022/11/26 02:03:33;;;;;;;0.00;0.00;;;;;;;3.59;100.00;102481.59;5229606;28;20091;-67
2022/11/26 02:06:11;;;;;;;0.05;0.00;;;;;;;3.58;100.00;102482.47;5228078;28;20061;-67
2022/11/26 02:08:43;;;;;;;0.10;0.00;;;;;;;3.55;100.00;102486.06;5228535;28;20056;-67
2022/11/26 02:11:18;;;;;;;0.00;0.00;;;;;;;3.53;100.00;102483.44;5226871;28;20029;-67
2022/11/26 02:13:57;;;;;;;0.10;0.10;;;;;;;3.53;100.00;102487.84;5228827;28;20036;-70
2022/11/26 02:16:48;;;;;;;0.25;0.00;;;;;;;3.52;100.00;102488.75;5226610;28;20033;-70
2022/11/26 02:19:33;;;;;;;0.00;0.00;;;;;;;3.51;100.00;102494.94;5228816;28;20033;-69
2022/11/26 02:22:20;;;;;;;0.22;0.00;;;;;;;3.50;100.00;102496.69;5226484;28;20045;-70
2022/11/26 02:25:00;;;;;;;0.13;0.00;;;;;;;3.49;100.00;102496.72;5228248;28;20029;-69
2022/11/26 02:27:53;;;;;;;0.00;0.00;;;;;;;3.48;100.00;102498.50;5228028;28;20037;-70
2022/11/26 02:30:25;;;;;;;0.00;0.00;;;;;;;3.47;100.00;102496.78;5227263;28;20163;-70
2022/11/26 02:33:28;;;;;;;0.10;0.00;;;;;;;3.49;100.00;102499.34;5231465;28;20029;-69
2022/11/26 02:36:18;;;;;;;0.15;0.00;;;;;;;3.49;100.00;102502.00;5227440;28;20099;-70
2022/11/26 02:38:49;;;;;;;0.00;0.00;;;;;;;3.46;100.00;102500.28;5227736;28;20033;-70
2022/11/26 02:41:21;;;;;;;0.05;0.00;;;;;;;3.44;100.00;102491.53;5230235;28;20045;-70
2022/11/26 02:43:52;;;;;;;0.00;0.00;;;;;;;3.44;100.00;102485.41;5230339;28;20033;-70
2022/11/26 02:46:23;;;;;;;0.15;0.00;;;;;;;3.44;100.00;102486.25;5238683;28;20025;-70
2022/11/26 02:48:55;;;;;;;0.20;0.00;;;;;;;3.45;100.00;102489.75;5228103;28;20039;-70
2022/11/26 02:51:27;;;;;;;0.17;0.00;;;;;;;3.43;100.00;102497.72;5224628;28;20045;-70
2022/11/26 02:54:00;;;;;;;0.20;0.00;;;;;;;3.43;100.00;102504.75;5224483;28;20049;-70
2022/11/26 02:56:32;;;;;;;0.20;0.00;;;;;;;3.41;100.00;102504.78;5229813;28;20037;-70
2022/11/26 02:59:04;;;;;;;0.10;0.00;;;;;;;3.42;100.00;102506.53;5228220;28;20030;-70
2022/11/26 03:01:41;;;;;;;0.00;0.00;;;;;;;3.42;100.00;102510.94;5225497;28;20083;-70
2022/11/26 03:04:20;;;;;;;0.08;0.00;;;;;;;3.40;100.00;102507.47;5224845;28;20087;-70
2022/11/26 03:06:55;;;;;;;0.00;0.00;;;;;;;3.38;100.00;102517.19;5225128;28;20030;-70
2022/11/26 03:09:27;;;;;;;0.00;0.00;;;;;;;3.38;100.00;102519.84;5229710;28;20028;-70
2022/11/26 03:11:58;;;;;;;0.00;0.00;;;;;;;3.38;100.00;102517.19;5232117;28;20511;-69
2022/11/26 03:14:29;;;;;;;0.00;0.00;;;;;;;3.35;100.00;102526.00;5230382;28;20471;-69
2022/11/26 03:17:00;;;;;;;0.10;0.00;;;;;;;3.34;100.00;102524.28;5227242;28;20743;-69
2022/11/26 03:19:32;;;;;;;0.22;0.00;;;;;;;3.34;100.00;102526.94;5229871;28;20434;-70
2022/11/26 03:22:03;;;;;;;0.00;0.00;;;;;;;3.31;100.00;102530.47;5230920;28;20040;-70
2022/11/26 03:24:35;;;;;;;0.40;0.10;;;;;;;3.30;100.00;102528.75;5227958;28;20021;-70
2022/11/26 03:27:06;;;;;;;0.22;0.00;;;;;;;3.30;100.00;102536.66;5224423;28;20026;-70
2022/11/26 03:29:37;;;;;;;0.00;0.00;;;;;;;3.29;100.00;102532.28;5224165;28;20033;-70
2022/11/26 03:32:09;;;;;;;0.10;0.00;;;;;;;3.30;100.00;102527.88;5229542;28;20025;-67
2022/11/26 03:34:41;;;;;;;0.00;0.00;;;;;;;3.28;100.00;102538.47;5227130;28;20026;-70
2022/11/26 03:37:13;;;;;;;0.20;0.00;;;;;;;3.28;100.00;102546.38;5227759;28;20670;-69
2022/11/26 03:39:45;;;;;;;0.00;0.00;;;;;;;3.27;100.00;102547.25;5229942;28;20049;-70
2022/11/26 03:42:16;;;;;;;0.00;0.00;;;;;;;3.27;100.00;102527.94;5230423;28;20055;-70
2022/11/26 03:44:47;;;;;;;0.08;0.00;;;;;;;3.28;100.00;102537.56;5225677;28;20069;-70
2022/11/26 03:47:19;;;;;;;0.10;0.00;;;;;;;3.28;100.00;102532.28;5232217;28;20112;-70
2022/11/26 03:49:50;;;;;;;0.00;0.00;;;;;;;3.27;100.00;102534.06;5231795;28;20033;-70
2022/11/26 03:52:21;;;;;;;0.57;0.03;;;;;;;3.26;100.00;102534.09;5229517;28;20036;-70
2022/11/26 03:54:52;;;;;;;0.20;0.00;;;;;;;3.24;100.00;102544.69;5227217;28;21307;-69
2022/11/26 03:57:24;;;;;;;0.00;0.00;;;;;;;3.23;100.00;102540.31;5230150;28;20060;-69
2022/11/26 03:59:55;;;;;;;0.00;0.00;;;;;;;3.20;100.00;102537.72;5230980;28;20186;-70
2022/11/26 04:02:27;;;;;;;0.20;0.00;;;;;;;3.19;100.00;102543.03;5233794;28;20030;-70
2022/11/26 04:04:58;;;;;;;0.10;0.00;;;;;;;3.17;100.00;102550.13;5234890;28;20064;-70
2022/11/26 04:07:29;;;;;;;0.10;0.00;;;;;;;3.16;100.00;102546.59;5229704;28;20025;-70
2022/11/26 04:10:01;;;;;;;0.10;0.00;;;;;;;3.14;100.00;102551.03;5230914;28;20483;-70
2022/11/26 04:12:32;;;;;;;0.15;0.00;;;;;;;3.15;100.00;102555.41;5229775;28;20041;-69
2022/11/26 04:15:04;;;;;;;0.00;0.00;;;;;;;3.14;100.00;102545.75;5234308;28;20041;-70
2022/11/26 04:17:35;;;;;;;0.00;0.00;;;;;;;3.12;100.00;102560.72;5226262;28;20040;-70
2022/11/26 04:20:07;;;;;;;0.20;0.00;;;;;;;3.11;100.00;102559.00;5221332;28;20772;-70
2022/11/26 04:22:39;;;;;;;0.38;0.00;;;;;;;3.11;100.00;102569.56;5225966;28;20059;-70
2022/11/26 04:25:10;;;;;;;0.00;0.00;;;;;;;3.06;100.00;102561.72;5233264;28;20455;-70
2022/11/26 04:27:41;;;;;;;0.05;0.00;;;;;;;3.08;100.00;102572.22;5236562;28;20033;-70
2022/11/26 04:30:13;;;;;;;0.20;0.00;;;;;;;3.08;100.00;102566.97;5239121;28;20086;-70
2022/11/26 04:32:45;;;;;;;0.20;0.00;;;;;;;3.06;100.00;102563.47;5233034;28;20037;-70
2022/11/26 04:35:16;;;;;;;0.08;0.00;;;;;;;3.06;100.00;102556.44;5232111;28;20123;-70
2022/11/26 04:37:47;;;;;;;0.00;0.00;;;;;;;3.09;100.00;102560.81;5227540;28;20033;-70
2022/11/26 04:40:19;;;;;;;0.10;0.00;;;;;;;3.10;100.00;102568.66;5234134;28;20037;-70
2022/11/26 04:42:50;;;;;;;0.00;0.00;;;;;;;3.11;100.00;102569.56;5231448;28;20355;-69
2022/11/26 04:45:21;;;;;;;0.10;0.00;;;;;;;3.10;100.00;102562.53;5228299;28;20410;-70
2022/11/26 04:47:53;;;;;;;0.25;0.05;;;;;;;3.09;100.00;102577.47;5231470;28;20021;-70
2022/11/26 04:50:24;;;;;;;0.00;0.00;;;;;;;3.11;100.00;102569.56;5232771;28;20033;-70
2022/11/26 04:52:56;;;;;;;0.00;0.00;;;;;;;3.10;100.00;102576.56;5230843;28;20029;-70
2022/11/26 04:55:27;;;;;;;0.22;0.00;;;;;;;3.10;100.00;102573.94;5232187;28;20465;-71
2022/11/26 04:57:58;;;;;;;0.00;0.00;;;;;;;3.09;100.00;102576.63;5227818;28;20034;-70
2022/11/26 05:00:29;;;;;;;0.00;0.00;;;;;;;3.08;100.00;102569.59;5229526;28;20030;-70
2022/11/26 05:03:01;;;;;;;0.00;0.00;;;;;;;3.07;100.00;102573.16;5228587;28;20033;-70
2022/11/26 05:05:32;;;;;;;0.00;0.00;;;;;;;3.07;100.00;102578.41;5232556;28;20021;-70
2022/11/26 05:08:04;;;;;;;0.00;0.00;;;;;;;3.05;100.00;102572.28;5230900;28;20083;-70
2022/11/26 05:10:35;;;;;;;0.00;0.00;;;;;;;3.05;100.00;102574.91;5230988;28;20073;-70
2022/11/26 05:13:07;;;;;;;0.00;0.00;;;;;;;3.05;100.00;102586.34;5230093;28;20037;-70
2022/11/26 05:15:38;;;;;;;0.08;0.00;;;;;;;3.06;100.00;102581.94;5229556;28;20102;-70
2022/11/26 05:18:10;;;;;;;0.43;0.00;;;;;;;3.06;100.00;102590.72;5226009;28;20388;-70
2022/11/26 05:20:41;;;;;;;0.00;0.00;;;;;;;3.06;100.00;102587.22;5232542;28;20141;-69
2022/11/26 05:23:12;;;;;;;0.00;0.00;;;;;;;3.06;100.00;102584.56;5229746;28;20059;-70
2022/11/26 05:25:44;;;;;;;0.00;0.00;;;;;;;3.04;100.00;102586.38;5230182;28;20031;-70
2022/11/26 05:28:15;;;;;;;0.00;0.00;;;;;;;3.04;100.00;102589.00;5230662;28;20033;-70
2022/11/26 05:30:46;;;;;;;0.10;0.00;;;;;;;3.04;100.00;102587.22;5230626;28;20080;-70
2022/11/26 05:33:18;;;;;;;0.00;0.00;;;;;;;3.03;100.00;102593.41;5228807;28;20394;-70
2022/11/26 05:35:49;;;;;;;0.43;0.00;;;;;;;3.03;100.00;102597.81;5230463;28;20083;-70
2022/11/26 05:38:20;;;;;;;0.13;0.00;;;;;;;3.05;100.00;102601.28;5226486;28;20376;-70
2022/11/26 05:40:52;;;;;;;0.25;0.00;;;;;;;3.06;100.00;102597.75;5228543;28;20416;-70
2022/11/26 05:43:23;;;;;;;0.10;0.00;;;;;;;3.06;100.00;102595.13;5227484;28;20037;-70
2022/11/26 05:45:54;;;;;;;0.00;0.00;;;;;;;3.06;100.00;102596.00;5233285;28;20033;-70
2022/11/26 05:48:25;;;;;;;0.30;0.00;;;;;;;3.05;100.00;102602.19;5228223;28;20657;-70
2022/11/26 05:50:58;;;;;;;0.10;0.00;;;;;;;3.05;100.00;102607.44;5231572;28;20025;-70
2022/11/26 05:53:29;;;;;;;0.10;0.00;;;;;;;3.05;100.00;102604.81;5230875;28;20140;-70
2022/11/26 05:56:01;;;;;;;0.10;0.00;;;;;;;3.05;100.00;102601.28;5231204;28;20037;-70
2022/11/26 05:58:32;;;;;;;0.28;0.00;;;;;;;3.05;100.00;102615.34;5225442;28;20464;-70
2022/11/26 06:01:08;;;;;;;0.05;0.00;;;;;;;3.06;100.00;102624.13;5230498;28;20028;-70
2022/11/26 06:03:39;;;;;;;0.38;0.00;;;;;;;3.05;100.00;102614.47;5230693;28;20033;-70
2022/11/26 06:06:10;;;;;;;0.05;0.00;;;;;;;3.05;100.00;102625.00;5228659;28;20060;-70
2022/11/26 06:08:42;;;;;;;0.00;0.00;;;;;;;3.04;100.00;102633.84;5227104;28;20072;-70
2022/11/26 06:11:13;;;;;;;0.15;0.00;;;;;;;3.02;100.00;102633.84;5231084;28;20048;-70
2022/11/26 06:13:44;;;;;;;0.00;0.00;;;;;;;3.04;100.00;102628.56;5229242;28;20483;-70
2022/11/26 06:16:16;;;;;;;0.00;0.00;;;;;;;3.04;100.00;102631.19;5229927;28;20033;-70
2022/11/26 06:18:47;;;;;;;0.25;0.00;;;;;;;3.04;100.00;102631.19;5228543;28;20091;-70
2022/11/26 06:21:18;;;;;;;0.17;0.00;;;;;;;3.04;100.00;102628.56;5236467;28;20364;-70
2022/11/26 06:23:49;;;;;;;0.00;0.00;;;;;;;3.03;100.00;102626.81;5226485;28;20590;-70
2022/11/26 06:26:21;;;;;;;0.10;0.00;;;;;;;3.04;100.00;102621.50;5228126;28;20052;-70
2022/11/26 06:28:52;;;;;;;0.00;0.00;;;;;;;3.06;100.00;102632.91;5228363;28;20033;-70
2022/11/26 06:31:23;;;;;;;0.00;0.00;;;;;;;3.06;100.00;102635.53;5230540;28;20029;-70
2022/11/26 06:33:55;;;;;;;0.10;0.00;;;;;;;3.05;100.00;102628.53;5229561;28;20187;-70
2022/11/26 06:36:26;;;;;;;0.28;0.00;;;;;;;3.07;100.00;102632.03;5232362;28;20029;-70
2022/11/26 06:38:57;;;;;;;0.00;0.00;;;;;;;3.06;100.00;102632.91;5230209;28;20034;-70
2022/11/26 06:41:28;;;;;;;0.10;0.00;;;;;;;3.06;100.00;102634.69;5231020;28;20044;-70
2022/11/26 06:44:00;;;;;;;0.20;0.00;;;;;;;3.04;100.00;102633.84;5229677;28;20029;-70
2022/11/26 06:46:33;;;;;;;0.00;0.00;;;;;;;3.05;100.00;102643.47;5231087;28;20061;-70
2022/11/26 06:49:05;;;;;;;0.00;0.00;;;;;;;3.04;100.00;102653.16;5224976;28;20050;-70
2022/11/26 06:51:37;;;;;;;0.32;0.05;;;;;;;3.04;100.00;102641.75;5226072;28;20288;-70
2022/11/26 06:54:08;;;;;;;0.10;0.03;;;;;;;3.03;100.00;102648.78;5222472;28;20068;-70
2022/11/26 06:56:39;;;;;;;0.00;0.00;;;;;;;3.03;100.00;102640.00;5226814;28;20037;-69
2022/11/26 06:59:11;;;;;;;0.00;0.00;;;;;;;3.02;100.00;102656.72;5225818;28;20029;-70
2022/11/26 07:01:42;;;;;;;0.05;0.00;;;;;;;2.99;100.00;102652.34;5226974;28;20029;-70
2022/11/26 07:04:13;;;;;;;0.00;0.00;;;;;;;2.99;100.00;102648.84;5228195;28;20352;-70
2022/11/26 07:06:45;;;;;;;0.00;0.00;;;;;;;2.99;100.00;102654.13;5225610;28;20043;-70
2022/11/26 07:09:16;;;;;;;0.00;0.00;;;;;;;2.98;100.00;102661.16;5228840;28;20041;-70
2022/11/26 07:11:48;;;;;;;0.08;0.00;;;;;;;2.98;100.00;102669.09;5230048;28;20043;-69
2022/11/26 07:14:21;;;;;;;0.20;0.00;;;;;;;2.98;100.00;102666.44;5230269;28;20067;-70
2022/11/26 07:16:52;;;;;;;0.00;0.00;;;;;;;2.99;100.00;102670.81;5230214;28;20124;-70
2022/11/26 07:19:23;;;;;;;0.20;0.00;;;;;;;3.01;100.00;102673.44;5229186;28;20048;-70
2022/11/26 07:21:55;;;;;;;0.10;0.00;;;;;;;3.01;100.00;102676.97;5229405;28;20775;-71
2022/11/26 07:24:26;;;;;;;0.10;0.00;;;;;;;3.04;100.00;102683.94;5229358;28;20071;-70
2022/11/26 07:26:57;;;;;;;0.00;0.00;;;;;;;3.04;100.00;102676.88;5227169;28;20509;-70
2022/11/26 07:29:29;;;;;;;0.00;0.00;;;;;;;3.04;100.00;102686.56;5230694;28;20082;-70
2022/11/26 07:32:00;;;;;;;0.00;0.00;;;;;;;3.06;100.00;102679.50;5225140;28;20033;-70
2022/11/26 07:34:31;;;;;;;0.00;0.00;;;;;;;3.06;100.00;102685.66;5228404;28;20033;-69
2022/11/26 07:37:03;;;;;;;0.00;0.00;;;;;;;3.06;100.00;102690.06;5226982;28;20025;-69
2022/11/26 07:39:34;;;;;;;0.00;0.00;;;;;;;3.08;100.00;102683.84;5230802;28;20033;-70
2022/11/26 07:42:05;;;;;;;0.00;0.00;;;;;;;3.09;100.00;102685.59;5232689;28;20036;-70
2022/11/26 07:44:37;;;;;;;0.00;0.00;;;;;;;3.11;100.00;102691.72;5229716;28;20063;-69
2022/11/26 07:47:08;;;;;;;0.20;0.00;;;;;;;3.12;100.00;102687.31;5246838;28;20667;-70
2022/11/26 07:49:39;;;;;;;0.05;0.00;;;;;;;3.12;100.00;102682.91;5224222;28;20037;-70
2022/11/26 07:52:10;;;;;;;0.10;0.00;;;;;;;3.14;100.00;102690.81;5230797;28;20512;-70
2022/11/26 07:54:42;;;;;;;0.20;0.00;;;;;;;3.18;100.00;102683.72;5235167;28;20088;-70
2022/11/26 07:57:13;;;;;;;0.35;0.03;;;;;;;3.19;100.00;102682.84;5237928;28;20045;-70
2022/11/26 07:59:44;;;;;;;0.00;0.00;;;;;;;3.22;100.00;102688.94;5231787;28;20660;-70
2022/11/26 08:02:16;;;;;;;0.10;0.00;;;;;;;3.25;100.00;102686.22;5233363;28;20033;-70
2022/11/26 08:04:47;;;;;;;0.15;0.00;;;;;;;3.28;100.00;102683.56;5237160;28;20417;-70
2022/11/26 08:07:19;;;;;;;0.40;0.08;;;;;;;3.31;100.00;102685.25;5244248;28;20048;-70
2022/11/26 08:09:50;;;;;;;0.08;0.00;;;;;;;3.33;100.00;102686.97;5239955;28;20083;-70
2022/11/26 08:12:21;;;;;;;0.00;0.00;;;;;;;3.38;100.00;102692.19;5230805;28;20695;-70
2022/11/26 08:14:52;;;;;;;0.45;0.10;;;;;;;3.43;100.00;102690.34;5232309;28;21754;-70
2022/11/26 08:17:24;;;;;;;0.30;0.05;;;;;;;3.46;100.00;102686.78;5236871;28;20030;-70
2022/11/26 08:19:55;;;;;;;0.10;0.00;;;;;;;3.51;100.00;102692.84;5233817;28;20391;-70
2022/11/26 08:22:28;;;;;;;0.20;0.00;;;;;;;3.56;100.00;102700.69;5235694;28;20479;-70
2022/11/26 08:25:00;;;;;;;0.15;0.08;;;;;;;3.61;100.00;102699.72;5237434;28;20033;-70
2022/11/26 08:27:32;;;;;;;0.28;0.00;;;;;;;3.66;100.00;102703.16;5233879;28;21497;-70
2022/11/26 08:30:04;;;;;;;0.30;0.00;;;;;;;3.71;100.00;102703.91;5232587;28;20041;-70
2022/11/26 08:32:36;;;;;;;0.00;0.00;;;;;;;3.77;100.00;102702.94;5232509;28;20061;-69
2022/11/26 08:35:07;;;;;;;0.00;0.00;;;;;;;3.83;100.00;102708.09;5232246;28;20523;-69
2022/11/26 08:37:38;;;;;;;0.22;0.13;;;;;;;3.88;100.00;102705.41;5234913;28;20383;-69
2022/11/26 08:40:10;;;;;;;0.00;0.00;;;;;;;3.92;100.00;102712.34;5231449;28;20041;-69
2022/11/26 08:42:41;;;;;;;0.08;0.00;;;;;;;3.98;100.00;102706.94;5234392;28;20053;-69
2022/11/26 08:45:13;;;;;;;0.10;0.00;;;;;;;4.03;100.00;102705.09;5235345;28;20112;-69
2022/11/26 08:47:44;;;;;;;0.00;0.00;;;;;;;4.07;100.00;102701.50;5237086;28;20793;-69
2022/11/26 08:50:15;;;;;;;0.20;0.00;;;;;;;4.13;100.00;102703.16;5229653;28;20047;-70
2022/11/26 08:52:47;;;;;;;0.05;0.00;;;;;;;4.17;100.00;102715.41;5236713;28;20044;-69
2022/11/26 08:55:18;;;;;;;0.00;0.00;;;;;;;4.23;100.00;102714.41;5234012;28;20131;-69
2022/11/26 08:57:49;;;;;;;0.05;0.00;;;;;;;4.26;100.00;102703.78;5227677;28;20042;-70
2022/11/26 09:00:20;;;;;;;0.00;0.00;;;;;;;4.30;100.00;102706.31;5226714;28;20112;-69
2022/11/26 09:02:52;;;;;;;0.35;0.00;;;;;;;4.36;100.00;102709.75;5243991;28;20037;-69
2022/11/26 09:05:23;;;;;;;0.08;0.00;;;;;;;4.40;100.00;102717.56;5233791;28;20029;-70
2022/11/26 09:07:54;;;;;;;0.20;0.00;;;;;;;4.47;100.00;102715.69;5231331;28;20037;-71
2022/11/26 09:10:26;;;;;;;0.00;0.00;;;;;;;4.54;100.00;102716.41;5235575;28;20033;-70
2022/11/26 09:12:57;;;;;;;0.30;0.10;;;;;;;4.58;100.00;102728.66;5235484;28;20029;-70
2022/11/26 09:15:28;;;;;;;0.00;0.00;;;;;;;4.63;100.00;102734.75;5232241;28;20826;-70
2022/11/26 09:18:02;;;;;;;0.00;0.00;;;;;;;4.66;100.00;102729.38;5233849;28;20061;-70
2022/11/26 09:20:33;;;;;;;0.10;0.00;;;;;;;4.70;100.00;102725.78;5234278;28;20420;-70
2022/11/26 09:23:05;;;;;;;0.10;0.00;;;;;;;4.75;100.00;102731.81;5237597;28;20113;-70
2022/11/26 09:25:39;;;;;;;0.38;0.00;;;;;;;4.81;100.00;102733.47;5233886;28;20033;-70
2022/11/26 09:28:10;;;;;;;;;;;;;;;4.84;100.00;102738.69;5234233;28;20505;-70
2022/11/26 09:30:41;;;;;;;0.10;0.00;;;;;;;4.88;100.00;102743.88;5232871;28;19920;-70
2022/11/26 09:33:13;;;;;;;0.10;0.00;;;;;;;4.96;100.00;102745.47;5232462;28;20032;-70
2022/11/26 09:35:44;;;;;;;0.20;0.00;;;;;;;4.98;100.00;102739.25;5235185;28;20044;-70
2022/11/26 09:38:15;;;;;;;0.10;0.00;;;;;;;5.04;100.00;102751.47;5231084;28;20041;-70
2022/11/26 09:40:59;;;;;;;0.00;0.00;;;;;;;5.08;100.00;102758.41;5232228;28;20033;-70
2022/11/26 09:43:50;;;;;;;0.00;0.00;;;;;;;5.14;100.00;102758.31;5230975;28;20026;-70
2022/11/26 09:46:30;;;;;;;0.15;0.00;;;;;;;5.19;100.00;102756.41;5233863;28;20056;-70
2022/11/26 09:49:03;;;;;;;0.00;0.00;;;;;;;5.25;100.00;102743.06;5232996;28;20047;-70
2022/11/26 09:51:34;;;;;;;0.10;0.00;;;;;;;5.31;100.00;102747.31;5233365;28;20040;-70
2022/11/26 09:54:09;;;;;;;0.10;0.00;;;;;;;5.37;100.00;102752.47;5233117;28;20045;-70
2022/11/26 09:56:40;;;;;;;;;;;;;;;5.43;100.00;102735.56;5228789;28;20412;-70
2022/11/26 09:59:16;;;;;;;0.00;0.00;;;;;;;5.47;100.00;102747.81;5229316;28;19921;-70
2022/11/26 10:01:47;;;;;;;0.00;0.00;;;;;;;5.53;100.00;102737.06;5226669;28;20467;-70
2022/11/26 10:04:32;;;;;;;0.00;0.00;;;;;;;5.58;100.00;102748.44;5230785;28;20652;-70
2022/11/26 10:07:21;;;;;;;0.20;0.00;;;;;;;5.63;100.00;102743.88;5229296;28;20044;-70
2022/11/26 10:09:59;;;;;;;0.00;0.00;;;;;;;5.68;100.00;102747.28;5231718;28;20036;-70
2022/11/26 10:13:11;;;;;;;0.00;0.00;;;;;;;5.74;100.00;102753.34;5230779;28;20037;-70
2022/11/26 10:15:58;;;;;;;0.00;0.00;;;;;;;5.78;100.00;102747.91;5230513;28;20069;-70
2022/11/26 10:19:01;;;;;;;0.00;0.00;;;;;;;5.81;100.00;102739.91;5234596;28;20040;-70
2022/11/26 10:21:41;;;;;;;0.15;0.00;;;;;;;5.87;100.00;102742.38;5232075;28;20033;-70
2022/11/26 10:24:27;;;;;;;0.10;0.00;;;;;;;5.90;100.00;102742.28;5225281;28;20029;-70
2022/11/26 10:27:02;;;;;;;0.00;0.00;;;;;;;5.94;100.00;102742.22;5233496;28;20029;-70
2022/11/26 10:29:41;;;;;;;0.00;0.00;;;;;;;5.97;100.00;102740.41;5237608;28;20029;-70
2022/11/26 10:32:19;;;;;;;0.10;0.00;;;;;;;6.00;100.00;102731.47;5232863;28;20036;-70
2022/11/26 10:34:56;;;;;;;0.00;0.00;;;;;;;6.02;100.00;102735.84;5225180;28;20040;-70
2022/11/26 10:37:28;;;;;;;0.10;0.00;;;;;;;6.06;100.00;102726.03;5231764;28;20057;-70
2022/11/26 10:40:02;;;;;;;0.10;0.00;;;;;;;6.08;100.00;102718.91;5236935;28;20035;-70
2022/11/26 10:42:42;;;;;;;0.10;0.00;;;;;;;6.10;100.00;102717.09;5236095;28;20398;-70
2022/11/26 10:45:47;;;;;;;0.00;0.00;;;;;;;6.12;100.00;102717.03;5231063;28;20040;-70
2022/11/26 10:48:28;;;;;;;0.15;0.00;;;;;;;6.14;100.00;102717.88;5227574;28;20065;-70
2022/11/26 10:51:05;;;;;;;0.30;0.10;;;;;;;6.16;100.00;102705.47;5235462;28;20025;-70
2022/11/26 10:53:56;;;;;;;0.25;0.00;;;;;;;6.17;100.00;102712.47;5231788;28;20049;-70
2022/11/26 10:56:30;;;;;;;0.00;0.00;;;;;;;6.19;100.00;102716.81;5232395;28;20052;-70
2022/11/26 10:59:04;;;;;;;0.00;0.00;;;;;;;6.21;100.00;102716.78;5227854;28;20056;-70
2022/11/26 11:01:37;;;;;;;;;;;;;;;6.25;100.00;102721.06;5223714;28;20044;-70
2022/11/26 11:04:29;;;;;;;0.00;0.00;;;;;;;6.28;100.00;102715.69;5229208;28;19924;-70
2022/11/26 11:07:00;;;;;;;0.13;0.00;;;;;;;6.30;100.00;102703.28;5224557;28;20139;-70
2022/11/26 11:09:38;;;;;;;0.05;0.00;;;;;;;6.35;100.00;102709.31;5227736;28;20025;-70
2022/11/26 11:12:09;;;;;;;0.00;0.00;;;;;;;6.38;100.00;102698.59;5233914;28;20112;-70
2022/11/26 11:14:41;;;;;;;0.00;0.00;;;;;;;6.42;100.00;102705.59;5231396;28;20478;-70
2022/11/26 11:17:34;;;;;;;0.00;0.00;;;;;;;6.47;100.00;102721.34;5230908;28;20029;-70
2022/11/26 11:20:14;;;;;;;0.22;0.10;;;;;;;6.51;100.00;102711.53;5225892;28;20471;-70
2022/11/26 11:22:46;;;;;;;0.00;0.00;;;;;;;6.55;100.00;102719.31;5229851;28;20037;-69
2022/11/26 11:25:22;;;;;;;0.08;0.00;;;;;;;6.58;100.00;102723.69;5227383;28;20033;-70
2022/11/26 11:27:59;;;;;;;0.10;0.00;;;;;;;6.60;100.00;102728.03;5234952;28;20422;-70
2022/11/26 11:30:35;;;;;;;0.00;0.00;;;;;;;6.63;100.00;102722.63;5228392;28;20722;-70
2022/11/26 11:33:22;;;;;;;0.13;0.00;;;;;;;6.67;100.00;102713.69;5226260;28;20460;-70
2022/11/26 11:36:12;;;;;;;0.00;0.00;;;;;;;6.72;100.00;102713.53;5229128;28;20107;-70
2022/11/26 11:39:01;;;;;;;0.00;0.00;;;;;;;6.76;100.00;102712.50;5233602;28;20052;-70
2022/11/26 11:41:44;;;;;;;0.20;0.00;;;;;;;6.81;100.00;102713.25;5229042;28;20040;-70
2022/11/26 11:44:41;;;;;;;0.00;0.00;;;;;;;6.86;100.00;102711.34;5230862;28;20480;-71
2022/11/26 11:47:21;;;;;;;0.00;0.00;;;;;;;6.90;100.00;102706.78;5231596;28;20112;-71
2022/11/26 11:50:15;;;;;;;0.00;0.00;;;;;;;6.94;100.00;102707.56;5225706;28;20122;-71
2022/11/26 11:53:05;;;;;;;0.00;0.00;;;;;;;6.96;100.00;102693.34;5227983;28;20139;-71
2022/11/26 11:55:45;;;;;;;0.00;0.00;;;;;;;7.00;100.00;102700.28;5227914;28;20080;-71
2022/11/26 11:58:56;;;;;;;0.00;0.00;;;;;;;7.03;100.00;102689.56;5227734;28;20037;-72